Time;durP1;ratioP1;P1;durP2;ratioP2;P2;SDS_P1;SDS_P2;PMS_P1;PMS_P2;Temp;Humidity;BMP_temperature;BMP_pressure;BME280_temperature;BME280_humidity;BME280_pressure;Samples;Min_cycle;Max_cycle;Signal;HPM_P1;HPM_P2
2023/08/04 00:01:46;;;;;;;3.80;2.12;;;;;;;20.47;66.65;99280.16;7764043;32;36992;-80
2023/08/04 00:06:08;;;;;;;6.85;2.37;;;;;;;20.03;68.65;99294.66;7765631;32;39393;-81
2023/08/04 00:10:25;;;;;;;5.70;1.90;;;;;;;20.15;69.36;99272.50;7765561;32;40589;-80
2023/08/04 00:14:41;;;;;;;5.72;1.87;;;;;;;20.33;68.36;99275.81;7765308;32;37699;-81
2023/08/04 00:18:57;;;;;;;6.75;2.58;;;;;;;20.13;68.60;99274.00;7765166;32;37103;-80
2023/08/04 00:23:13;;;;;;;4.00;2.12;;;;;;;20.13;69.06;99272.06;7765545;32;39386;-80
2023/08/04 00:27:29;;;;;;;5.90;2.33;;;;;;;20.05;69.62;99251.66;7765227;32;40870;-80
2023/08/04 00:31:46;;;;;;;4.32;2.20;;;;;;;20.38;68.06;99266.47;7764910;32;38693;-80
2023/08/04 00:36:02;;;;;;;4.57;2.35;;;;;;;20.18;68.57;99240.56;7765171;32;37295;-80
2023/08/04 00:40:19;;;;;;;7.32;2.42;;;;;;;20.07;68.93;99268.72;7764965;32;40783;-79
2023/08/04 00:44:36;;;;;;;6.32;2.47;;;;;;;19.60;70.09;99282.19;7743094;32;39615;-80
2023/08/04 00:48:53;;;;;;;6.68;2.45;;;;;;;19.58;69.50;99240.25;7737963;32;38513;-80
2023/08/04 00:53:10;;;;;;;4.87;2.50;;;;;;;19.74;68.87;99241.19;7736637;32;37754;-80
2023/08/04 00:57:27;;;;;;;5.72;1.80;;;;;;;19.86;68.54;99246.72;7737905;32;39953;-80
2023/08/04 01:01:43;;;;;;;4.57;2.05;;;;;;;19.86;68.03;99219.06;7736672;32;40527;-80
2023/08/04 01:06:10;;;;;;;4.07;2.17;;;;;;;19.76;68.53;99216.75;7736434;32;37937;-80
2023/08/04 01:10:39;;;;;;;11.77;2.85;;;;;;;19.65;69.02;99224.69;7736592;32;36866;-80
2023/08/04 01:14:57;;;;;;;9.32;2.45;;;;;;;19.46;69.91;99239.09;7737426;32;39160;-80
2023/08/04 01:19:13;;;;;;;4.32;2.00;;;;;;;19.80;69.19;99236.22;7761681;32;41164;-78
2023/08/04 01:23:29;;;;;;;7.53;2.42;;;;;;;19.80;69.11;99231.53;7764133;32;38716;-80
2023/08/04 01:27:52;;;;;;;4.75;1.83;;;;;;;19.93;68.93;99223.22;7764245;32;37012;-80
2023/08/04 01:32:09;;;;;;;6.60;2.30;;;;;;;19.83;69.48;99218.94;7761662;32;39449;-80
2023/08/04 01:36:25;;;;;;;4.87;2.03;;;;;;;19.51;70.39;99252.69;7762493;32;39833;-80
2023/08/04 01:40:41;;;;;;;7.22;2.72;;;;;;;19.68;69.60;99245.34;7763546;32;38413;-80
2023/08/04 01:44:57;;;;;;;8.98;2.70;;;;;;;19.65;69.73;99235.75;7763817;32;37018;-80
2023/08/04 01:49:13;;;;;;;5.50;2.12;;;;;;;19.80;69.26;99259.19;7763700;32;39375;-80
2023/08/04 01:53:30;;;;;;;5.30;2.00;;;;;;;19.87;69.09;99230.94;7763412;32;39978;-79
2023/08/04 01:57:46;;;;;;;7.82;2.12;;;;;;;19.82;69.79;99218.16;7764099;32;37963;-80
2023/08/04 02:02:02;;;;;;;5.60;2.22;;;;;;;19.73;69.57;99239.56;7741044;32;37202;-80
2023/08/04 02:06:18;;;;;;;7.12;2.60;;;;;;;19.90;69.15;99246.81;7740194;32;39166;-80
2023/08/04 02:10:34;;;;;;;4.50;2.12;;;;;;;19.97;68.78;99268.38;7739770;32;40626;-80
2023/08/04 02:14:51;;;;;;;5.45;2.10;;;;;;;19.93;68.74;99264.69;7739631;32;37701;-82
2023/08/04 02:19:09;;;;;;;6.35;2.25;;;;;;;20.09;67.89;99254.53;7739739;32;37134;-79
2023/08/04 02:23:25;;;;;;;5.57;2.30;;;;;;;19.97;69.09;99271.97;7739717;32;40794;-79
2023/08/04 02:27:41;;;;;;;7.07;2.22;;;;;;;20.10;69.07;99253.37;7739641;32;39991;-79
2023/08/04 02:31:57;;;;;;;5.53;2.35;;;;;;;20.07;69.00;99251.31;7739543;32;38739;-79
2023/08/04 02:36:14;;;;;;;5.18;2.17;;;;;;;20.10;68.75;99267.22;7739500;32;37097;-79
2023/08/04 02:40:34;;;;;;;5.68;2.30;;;;;;;20.07;68.86;99276.19;7738033;32;39325;-79
2023/08/04 02:44:54;;;;;;;4.12;2.45;;;;;;;20.12;68.33;99298.09;7765764;32;39907;-80
2023/08/04 02:49:10;;;;;;;7.60;2.58;;;;;;;19.89;68.79;99315.19;7766384;32;39261;-80
2023/08/04 02:53:27;;;;;;;8.48;2.80;;;;;;;19.99;68.88;99305.63;7765057;32;37608;-80
2023/08/04 02:57:43;;;;;;;6.47;2.55;;;;;;;20.07;68.89;99284.50;7765151;32;40056;-80
2023/08/04 03:01:59;;;;;;;6.53;2.58;;;;;;;19.96;68.96;99306.31;7766225;32;39677;-80
2023/08/04 03:06:15;;;;;;;4.30;2.45;;;;;;;19.98;68.92;99311.50;7766074;32;38671;-79
2023/08/04 03:10:31;;;;;;;8.80;2.45;;;;;;;19.94;68.98;99325.22;7765204;32;37089;-80
2023/08/04 03:14:48;;;;;;;4.30;2.55;;;;;;;20.07;68.36;99313.00;7764637;32;39511;-80
2023/08/04 03:19:04;;;;;;;10.98;2.62;;;;;;;20.03;68.87;99311.25;7765980;32;40012;-80
2023/08/04 03:23:21;;;;;;;6.28;2.67;;;;;;;20.03;68.58;99319.56;7765452;32;37815;-80
2023/08/04 03:27:38;;;;;;;5.18;2.83;;;;;;;20.00;68.53;99303.66;7738947;32;38093;-80
2023/08/04 03:31:54;;;;;;;5.32;2.70;;;;;;;20.02;68.91;99307.69;7738854;32;39960;-80
2023/08/04 03:36:10;;;;;;;8.18;3.35;;;;;;;20.12;68.26;99320.25;7738740;32;39917;-80
2023/08/04 03:40:27;;;;;;;6.47;2.92;;;;;;;19.80;69.33;99353.22;7738485;32;38696;-79
2023/08/04 03:44:43;;;;;;;5.87;2.40;;;;;;;20.06;68.46;99365.91;7738785;32;37593;-80
2023/08/04 03:48:59;;;;;;;9.90;3.22;;;;;;;19.91;69.45;99363.84;7738705;32;39420;-80
2023/08/04 03:53:15;;;;;;;8.63;3.20;;;;;;;19.85;70.36;99343.88;7738566;32;39971;-80
2023/08/04 03:57:31;;;;;;;6.82;3.25;;;;;;;19.63;70.65;99375.53;7738545;32;37945;-79
2023/08/04 04:01:48;;;;;;;5.28;2.75;;;;;;;19.67;70.31;99387.50;7738599;32;37152;-79
2023/08/04 04:06:04;;;;;;;7.30;3.00;;;;;;;19.95;69.21;99395.16;7738704;32;40811;-79
2023/08/04 04:10:21;;;;;;;5.60;2.75;;;;;;;19.76;70.00;99360.56;7764278;32;39743;-80
2023/08/04 04:14:37;;;;;;;6.53;2.40;;;;;;;19.87;69.96;99356.22;7765276;32;37597;-79
2023/08/04 04:18:53;;;;;;;9.85;2.90;;;;;;;19.87;69.63;99370.03;7765380;32;37231;-79
2023/08/04 04:23:09;;;;;;;6.35;2.70;;;;;;;19.74;69.62;99349.06;7764980;32;40019;-80
2023/08/04 04:27:25;;;;;;;6.18;2.83;;;;;;;20.08;68.58;99342.25;7764930;32;40259;-80
2023/08/04 04:31:41;;;;;;;6.62;2.80;;;;;;;20.07;68.44;99334.31;7765167;32;37926;-80
2023/08/04 04:35:58;;;;;;;4.45;2.47;;;;;;;19.96;68.71;99302.75;7765095;32;37891;-80
2023/08/04 04:40:14;;;;;;;6.03;2.17;;;;;;;19.99;67.99;99299.25;7763889;32;39498;-79
2023/08/04 04:44:30;;;;;;;4.72;2.30;;;;;;;20.10;67.45;99305.16;7764714;32;39898;-79
2023/08/04 04:48:46;;;;;;;5.10;2.40;;;;;;;20.11;67.34;99302.03;7762542;32;38767;-80
2023/08/04 04:53:03;;;;;;;6.60;2.35;;;;;;;20.20;67.21;99299.94;7764779;32;37171;-79
2023/08/04 04:57:20;;;;;;;6.70;2.45;;;;;;;20.06;67.61;99305.03;7763661;32;40050;-79
2023/08/04 05:01:36;;;;;;;7.68;2.28;;;;;;;20.14;67.31;99300.53;7764757;32;40065;-79
2023/08/04 05:05:53;;;;;;;8.40;2.72;;;;;;;20.27;67.53;99282.75;7764760;32;37680;-79
2023/08/04 05:10:09;;;;;;;7.37;2.15;;;;;;;20.14;68.60;99290.25;7764610;32;36792;-78
2023/08/04 05:14:26;;;;;;;4.22;2.17;;;;;;;20.40;68.08;99286.28;7764388;32;40088;-80
2023/08/04 05:18:42;;;;;;;6.28;2.58;;;;;;;20.43;67.91;99302.19;7764340;32;39969;-79
2023/08/04 05:22:58;;;;;;;4.78;2.37;;;;;;;20.35;68.14;99297.59;7764206;32;38599;-81
2023/08/04 05:27:14;;;;;;;4.57;2.40;;;;;;;20.32;69.01;99290.00;7743571;32;37117;-79
2023/08/04 05:31:31;;;;;;;7.62;2.22;;;;;;;20.47;68.48;99286.50;7748107;32;39428;-79
2023/08/04 05:35:48;;;;;;;4.93;2.62;;;;;;;20.44;68.43;99265.88;7748781;32;39990;-77
2023/08/04 05:40:06;;;;;;;8.02;2.70;;;;;;;20.49;68.68;99264.81;7754705;32;38639;-78
2023/08/04 05:44:22;;;;;;;6.50;2.40;;;;;;;20.49;68.83;99284.19;7762497;32;37224;-78
2023/08/04 05:48:39;;;;;;;8.52;2.15;;;;;;;20.54;68.47;99289.50;7763520;32;40496;-78
2023/08/04 05:52:55;;;;;;;3.40;2.28;;;;;;;20.65;68.64;99286.25;7763519;32;39960;-78
2023/08/04 05:57:12;;;;;;;7.43;2.42;;;;;;;20.82;67.98;99256.28;7763253;32;37988;-77
2023/08/04 06:01:28;;;;;;;6.07;2.15;;;;;;;20.90;68.10;99257.28;7753280;32;37144;-78
2023/08/04 06:05:44;;;;;;;5.03;1.90;;;;;;;20.95;67.54;99281.94;7744456;32;40030;-78
2023/08/04 06:10:00;;;;;;;4.57;2.30;;;;;;;21.34;66.48;99271.13;7736710;32;40719;-77
2023/08/04 06:14:17;;;;;;;5.12;1.80;;;;;;;21.16;66.91;99264.28;7743167;32;38544;-79
2023/08/04 06:18:33;;;;;;;3.85;2.33;;;;;;;21.63;65.06;99269.09;7761796;32;37121;-79
2023/08/04 06:22:49;;;;;;;4.65;2.50;;;;;;;21.11;66.58;99287.56;7746046;32;40164;-80
2023/08/04 06:27:06;;;;;;;3.03;1.83;;;;;;;20.99;64.94;99274.56;7741686;32;40873;-77
2023/08/04 06:31:22;;;;;;;4.00;1.95;;;;;;;21.48;64.70;99264.34;7762333;32;37830;-78
2023/08/04 06:35:41;;;;;;;7.65;1.90;;;;;;;21.80;64.38;99267.91;7762424;32;37062;-78
2023/08/04 06:40:00;;;;;;;7.35;2.35;;;;;;;21.99;64.13;99266.34;7762442;32;39377;-78
2023/08/04 06:44:17;;;;;;;5.03;2.22;;;;;;;21.52;65.17;99276.31;7774632;32;38620;-77
2023/08/04 06:48:33;;;;;;;4.15;2.20;;;;;;;21.24;64.93;99285.50;7793394;32;37917;-78
2023/08/04 06:52:49;;;;;;;5.20;2.65;;;;;;;21.15;66.70;99307.03;7793425;32;37923;-79
2023/08/04 06:57:06;;;;;;;4.25;2.03;;;;;;;21.27;65.95;99312.50;7785635;32;40172;-78
2023/08/04 07:01:22;;;;;;;5.40;2.50;;;;;;;20.93;66.62;99303.66;7765742;32;41400;-79
2023/08/04 07:05:39;;;;;;;6.72;2.22;;;;;;;21.38;65.43;99299.72;7764020;32;37698;-79
2023/08/04 07:09:55;;;;;;;3.87;2.30;;;;;;;21.45;67.40;99314.94;7766054;32;36962;-78
2023/08/04 07:14:11;;;;;;;6.18;2.55;;;;;;;21.70;66.93;99318.41;7754422;32;38782;-80
2023/08/04 07:18:27;;;;;;;4.35;2.30;;;;;;;20.95;67.09;99326.28;7763493;32;39971;-82
2023/08/04 07:22:44;;;;;;;8.52;2.47;;;;;;;21.46;67.62;99322.13;7747825;32;37796;-80
2023/08/04 07:27:00;;;;;;;3.87;2.25;;;;;;;21.49;66.43;99316.69;7742390;32;37040;-79
2023/08/04 07:31:16;;;;;;;4.93;2.45;;;;;;;21.91;66.50;99307.81;7787342;32;39362;-80
2023/08/04 07:35:33;;;;;;;4.85;1.98;;;;;;;22.32;63.09;99307.59;7769963;32;40618;-79
2023/08/04 07:39:49;;;;;;;2.75;1.90;;;;;;;22.61;62.11;99310.97;7765652;32;38651;-81
2023/08/04 07:44:05;;;;;;;4.22;1.98;;;;;;;22.74;63.73;99300.53;7775773;32;37363;-81
2023/08/04 07:48:22;;;;;;;4.82;1.95;;;;;;;22.39;61.72;99327.19;7751113;32;40118;-80
2023/08/04 07:52:38;;;;;;;4.62;2.10;;;;;;;21.87;64.54;99361.59;7755726;32;39834;-79
2023/08/04 07:56:55;;;;;;;3.72;2.20;;;;;;;21.44;64.96;99371.56;7754856;32;38560;-82
2023/08/04 08:01:11;;;;;;;5.22;2.55;;;;;;;21.10;67.03;99357.19;7733940;32;165897;-81
2023/08/04 08:05:28;;;;;;;7.80;2.90;;;;;;;21.44;67.20;99335.50;7759525;32;40081;-77
2023/08/04 08:09:44;;;;;;;8.38;2.62;;;;;;;21.68;66.93;99334.56;7738492;32;39901;-77
2023/08/04 08:14:00;;;;;;;5.80;3.00;;;;;;;22.09;65.36;99319.34;7738131;32;37792;-77
2023/08/04 08:18:17;;;;;;;4.40;2.50;;;;;;;22.19;64.70;99294.97;7759057;32;37069;-77
2023/08/04 08:22:33;;;;;;;8.18;2.15;;;;;;;22.98;62.75;99291.09;7738087;32;39532;-81
2023/08/04 08:26:49;;;;;;;3.58;1.95;;;;;;;22.86;61.50;99297.59;7740316;32;40755;-84
2023/08/04 08:31:05;;;;;;;4.95;2.30;;;;;;;22.66;60.87;99285.69;7764113;32;37884;-80
2023/08/04 08:35:22;;;;;;;3.58;2.08;;;;;;;22.60;59.65;99281.59;7764251;32;37207;-81
2023/08/04 08:39:38;;;;;;;5.32;2.47;;;;;;;22.58;60.45;99270.84;7753123;32;39273;-80
2023/08/04 08:43:54;;;;;;;4.35;2.30;;;;;;;22.56;60.67;99283.47;7746529;32;40836;-81
2023/08/04 08:48:11;;;;;;;7.15;2.42;;;;;;;22.27;62.28;99285.63;7751622;32;38643;-83
2023/08/04 08:52:30;;;;;;;4.75;2.60;;;;;;;22.38;61.80;99297.78;7742439;32;37855;-80
2023/08/04 08:56:47;;;;;;;9.77;2.87;;;;;;;22.24;63.55;99278.81;7739483;32;40093;-85
2023/08/04 09:01:04;;;;;;;4.78;2.62;;;;;;;22.40;63.14;99272.44;7743859;32;40720;-84
2023/08/04 09:05:21;;;;;;;7.68;2.62;;;;;;;22.46;62.29;99274.56;7752525;32;37872;-83
2023/08/04 09:09:38;;;;;;;5.22;2.47;;;;;;;22.03;63.49;99337.44;7762249;32;37587;-83
2023/08/04 09:13:54;;;;;;;6.62;2.58;;;;;;;21.28;66.06;99369.53;7748073;32;39289;-84
2023/08/04 09:18:23;;;;;;;4.82;2.50;;;;;;;21.16;67.03;99325.25;7755336;32;40611;-81
2023/08/04 09:22:43;;;;;;;6.72;2.47;;;;;;;21.08;67.83;99351.19;7759760;32;38482;-81
2023/08/04 09:26:59;;;;;;;13.38;3.28;;;;;;;20.89;68.63;99410.03;7782079;32;37049;-81
2023/08/04 09:31:16;;;;;;;8.68;3.30;;;;;;;20.80;70.11;99338.13;7764117;32;39375;-80
2023/08/04 09:35:32;;;;;;;6.95;3.00;;;;;;;21.42;68.46;99321.19;7763645;32;39900;-81
2023/08/04 09:39:48;;;;;;;6.95;2.60;;;;;;;21.90;68.69;99306.22;7763721;32;38636;-82
2023/08/04 09:44:06;;;;;;;4.40;2.65;;;;;;;22.55;64.98;99298.56;7762684;32;37129;-82
2023/08/04 09:48:25;;;;;;;3.42;2.25;;;;;;;22.86;65.10;99290.06;7763638;32;39322;-82
2023/08/04 09:52:41;;;;;;;3.53;2.17;;;;;;;23.39;64.43;99288.69;7763633;32;39973;-83
2023/08/04 09:56:58;;;;;;;5.60;2.00;;;;;;;23.80;60.36;99281.44;7763266;32;38763;-82
2023/08/04 10:01:15;;;;;;;5.62;2.20;;;;;;;23.59;59.26;99281.91;7763430;32;37127;-82
2023/08/04 10:05:32;;;;;;;4.32;2.20;;;;;;;23.54;58.65;99284.16;7763298;32;40042;-83
2023/08/04 10:09:50;;;;;;;3.15;2.12;;;;;;;23.44;59.14;99271.72;7762564;32;40736;-82
2023/08/04 10:14:06;;;;;;;3.72;2.25;;;;;;;23.68;59.31;99270.50;7746619;32;37832;-86
2023/08/04 10:18:24;;;;;;;3.50;2.12;;;;;;;23.25;59.63;99286.47;7761803;32;37146;-86
2023/08/04 10:22:46;;;;;;;9.95;2.15;;;;;;;23.12;60.55;99288.59;7766588;32;39969;-86
2023/08/04 10:27:17;;;;;;;4.15;2.25;;;;;;;23.46;59.48;99283.25;7765504;32;40071;-86
2023/08/04 10:31:56;;;;;;;7.45;2.50;;;;;;;23.46;59.77;99288.00;7766753;32;37985;-82
2023/08/04 10:36:14;;;;;;;6.55;2.50;;;;;;;22.77;62.62;99297.81;7766337;32;38092;-70
2023/08/04 10:40:33;;;;;;;4.60;2.12;;;;;;;23.17;62.28;99296.62;7766191;32;40070;-70
2023/08/04 10:45:09;;;;;;;5.50;2.30;;;;;;;23.51;59.86;99285.72;7766354;32;39998;-71
2023/08/04 10:49:25;;;;;;;4.00;2.37;;;;;;;23.79;58.61;99287.38;7766126;32;38391;-70
2023/08/04 10:53:41;;;;;;;5.45;2.58;;;;;;;23.72;58.88;99284.47;7760472;32;37051;-69
2023/08/04 10:57:57;;;;;;;4.43;2.53;;;;;;;24.28;58.12;99292.09;7739114;32;39426;-69
2023/08/04 11:02:18;;;;;;;3.42;2.03;;;;;;;24.75;57.42;99298.34;7739237;32;39959;-69
2023/08/04 11:06:34;;;;;;;2.92;1.95;;;;;;;25.15;57.39;99291.22;7739083;32;38029;-69
2023/08/04 11:10:53;;;;;;;6.85;2.10;;;;;;;25.79;53.56;99291.00;7746179;32;36823;-71
2023/08/04 11:15:12;;;;;;;3.83;2.10;;;;;;;26.23;53.21;99292.13;7765856;32;39113;-71
2023/08/04 11:19:32;;;;;;;3.33;2.03;;;;;;;26.05;54.67;99300.41;7765643;32;39877;-81
2023/08/04 11:23:49;;;;;;;3.62;1.83;;;;;;;26.26;53.75;99296.16;7763614;32;37744;-80
2023/08/04 11:28:06;;;;;;;3.70;2.33;;;;;;;26.38;54.77;99304.19;7765977;32;37731;-81
2023/08/04 11:32:24;;;;;;;8.73;2.15;;;;;;;26.79;51.52;99304.03;7763639;32;39321;-80
2023/08/04 11:36:42;;;;;;;3.62;2.30;;;;;;;26.75;54.89;99294.81;7756015;32;40536;-79
2023/08/04 11:40:59;;;;;;;4.20;2.30;;;;;;;26.96;54.16;99283.72;7764465;32;38647;-79
2023/08/04 11:45:16;;;;;;;21.85;3.20;;;;;;;27.00;52.14;99268.94;7765333;32;37243;-80
2023/08/04 11:49:34;;;;;;;5.72;2.28;;;;;;;27.29;52.48;99279.00;7765618;32;39419;-71
2023/08/04 11:53:50;;;;;;;4.95;2.12;;;;;;;26.95;52.79;99287.69;7765492;32;39934;-70
2023/08/04 11:58:06;;;;;;;6.37;2.28;;;;;;;25.80;55.35;99292.63;7765278;32;37861;-71
2023/08/04 12:02:23;;;;;;;3.58;2.25;;;;;;;25.88;56.62;99293.47;7763923;32;38077;-71
2023/08/04 12:06:39;;;;;;;8.57;2.78;;;;;;;26.07;56.80;99292.44;7764503;32;40115;-73
2023/08/04 12:11:02;;;;;;;3.35;2.22;;;;;;;26.34;55.59;99287.44;7764162;32;39960;-72
2023/08/04 12:15:18;;;;;;;5.28;2.08;;;;;;;26.54;53.97;99295.50;7765201;32;38675;-81
2023/08/04 12:19:35;;;;;;;7.00;2.22;;;;;;;27.10;52.79;99273.75;7765322;32;37562;-81
2023/08/04 12:23:51;;;;;;;3.80;2.25;;;;;;;27.16;51.83;99291.75;7765335;32;39892;-81
2023/08/04 12:28:07;;;;;;;4.97;2.03;;;;;;;26.34;53.73;99303.41;7765330;32;39815;-82
2023/08/04 12:32:23;;;;;;;7.72;2.40;;;;;;;26.56;54.62;99293.09;7765096;32;38037;-82
2023/08/04 12:36:40;;;;;;;5.85;2.12;;;;;;;26.96;52.73;99269.72;7765068;32;37799;-81
2023/08/04 12:40:56;;;;;;;5.97;1.90;;;;;;;27.26;52.81;99268.59;7764696;32;40119;-82
2023/08/04 12:45:12;;;;;;;4.55;1.80;;;;;;;28.03;49.68;99265.44;7763607;32;40828;-81
2023/08/04 12:49:29;;;;;;;4.30;2.08;;;;;;;28.08;48.84;99265.03;7763696;32;38636;-82
2023/08/04 12:53:45;;;;;;;5.62;2.10;;;;;;;27.63;50.36;99264.66;7764014;32;37183;-82
2023/08/04 12:58:01;;;;;;;3.55;2.17;;;;;;;27.92;49.40;99253.44;7761897;32;39330;-82
2023/08/04 13:02:19;;;;;;;4.12;2.03;;;;;;;28.46;47.80;99247.69;7756220;32;39758;-82
2023/08/04 13:06:35;;;;;;;4.28;2.40;;;;;;;28.47;48.22;99244.47;7763720;32;37335;-82
2023/08/04 13:10:52;;;;;;;3.33;1.98;;;;;;;28.42;47.98;99236.50;7763683;32;37082;-82
2023/08/04 13:15:09;;;;;;;5.22;2.22;;;;;;;27.90;49.46;99255.81;7763609;32;39265;-81
2023/08/04 13:19:25;;;;;;;3.53;2.00;;;;;;;28.07;48.77;99259.81;7763512;32;40573;-81
2023/08/04 13:23:41;;;;;;;2.60;2.10;;;;;;;27.20;51.58;99264.59;7761719;32;36651;-82
2023/08/04 13:27:57;;;;;;;2.55;1.95;;;;;;;27.99;50.61;99253.41;7764336;32;37182;-82
2023/08/04 13:32:14;;;;;;;4.20;1.90;;;;;;;27.66;51.59;99263.81;7760053;32;39341;-80
2023/08/04 13:36:30;;;;;;;4.12;2.17;;;;;;;28.21;48.33;99258.97;7763610;32;39911;-81
2023/08/04 13:40:46;;;;;;;4.93;2.42;;;;;;;28.56;48.07;99252.50;7762710;32;38814;-80
2023/08/04 13:45:03;;;;;;;3.90;2.05;;;;;;;27.83;48.81;99251.03;7762906;32;36825;-81
2023/08/04 13:49:19;;;;;;;5.00;1.95;;;;;;;28.61;48.04;99248.44;7763746;32;39261;-81
2023/08/04 13:53:35;;;;;;;3.37;1.90;;;;;;;29.01;47.88;99244.25;7763291;32;39869;-80
2023/08/04 13:57:51;;;;;;;3.55;2.00;;;;;;;29.36;47.60;99242.41;7766737;32;38105;-82
2023/08/04 14:02:11;;;;;;;9.00;2.10;;;;;;;29.28;47.06;99240.06;7764970;32;37840;-81
2023/08/04 14:06:29;;;;;;;6.90;1.92;;;;;;;28.98;47.63;99249.88;7766936;32;40136;-81
2023/08/04 14:10:47;;;;;;;3.87;2.03;;;;;;;28.98;47.95;99244.25;7766349;32;41308;-81
2023/08/04 14:15:04;;;;;;;6.37;2.10;;;;;;;28.92;48.86;99237.47;7766054;32;37571;-81
2023/08/04 14:19:20;;;;;;;4.45;1.83;;;;;;;29.48;46.62;99227.09;7766694;32;37773;-82
2023/08/04 14:23:36;;;;;;;5.37;2.22;;;;;;;29.50;47.61;99221.06;7765789;32;39302;-80
2023/08/04 14:27:53;;;;;;;6.97;2.37;;;;;;;29.69;47.09;99214.06;7766648;32;39662;-81
2023/08/04 14:32:09;;;;;;;4.35;1.87;;;;;;;29.85;46.51;99224.78;7766089;32;38457;-82
2023/08/04 14:36:25;;;;;;;8.50;2.08;;;;;;;30.01;46.50;99225.00;7765717;32;37019;-81
2023/08/04 14:40:42;;;;;;;3.87;1.95;;;;;;;30.13;46.57;99226.47;7766226;32;40130;-80
2023/08/04 14:44:58;;;;;;;5.28;2.25;;;;;;;28.86;48.40;99220.28;7765734;32;39853;-80
2023/08/04 14:49:15;;;;;;;6.80;1.75;;;;;;;29.45;47.53;99224.31;7766292;32;37721;-80
2023/08/04 14:53:31;;;;;;;3.22;1.80;;;;;;;29.69;46.21;99208.44;7765551;32;37995;-80
2023/08/04 14:57:47;;;;;;;2.42;1.90;;;;;;;29.83;45.90;99213.94;7766254;32;39018;-81
2023/08/04 15:02:04;;;;;;;6.00;2.30;;;;;;;29.97;45.44;99215.81;7765720;32;39875;-81
2023/08/04 15:06:20;;;;;;;3.03;1.50;;;;;;;29.68;45.75;99218.88;7765504;32;38142;-81
2023/08/04 15:10:36;;;;;;;6.22;2.40;;;;;;;29.76;45.97;99214.03;7764758;32;36970;-81
2023/08/04 15:14:52;;;;;;;3.12;2.03;;;;;;;28.98;47.29;99222.63;7765444;32;39591;-81
2023/08/04 15:19:09;;;;;;;5.72;2.22;;;;;;;28.29;49.08;99222.13;7766222;32;39791;-81
2023/08/04 15:23:25;;;;;;;4.18;2.20;;;;;;;27.69;50.56;99226.63;7765445;32;37520;-80
2023/08/04 15:27:41;;;;;;;4.50;1.60;;;;;;;27.68;51.12;99244.66;7765529;32;36972;-81
2023/08/04 15:31:58;;;;;;;3.85;1.83;;;;;;;27.06;52.15;99236.56;7763872;32;40161;-81
2023/08/04 15:36:14;;;;;;;2.80;1.70;;;;;;;27.02;53.36;99235.78;7764901;32;40150;-80
2023/08/04 15:40:31;;;;;;;3.00;1.75;;;;;;;27.08;52.06;99225.78;7765279;32;37963;-81
2023/08/04 15:44:48;;;;;;;3.53;1.75;;;;;;;26.59;53.64;99240.00;7764849;32;37015;-82
2023/08/04 15:49:06;;;;;;;3.78;2.17;;;;;;;26.55;53.25;99225.22;7765599;32;39331;-82
2023/08/04 15:53:29;;;;;;;2.70;1.80;;;;;;;26.05;54.50;99241.75;7764831;32;39817;-81
2023/08/04 15:57:52;;;;;;;7.57;1.98;;;;;;;26.34;54.29;99242.72;7764497;32;37813;-81
2023/08/04 16:02:13;;;;;;;2.55;1.62;;;;;;;26.57;53.67;99231.22;7765289;32;37773;-81
2023/08/04 16:06:30;;;;;;;3.47;1.60;;;;;;;26.46;53.45;99236.00;7764733;32;40152;-81
2023/08/04 16:10:46;;;;;;;10.07;4.80;;;;;;;26.38;53.05;99257.50;7765114;32;40736;-82
2023/08/04 16:15:04;;;;;;;2.62;1.80;;;;;;;25.64;55.29;99250.22;7764923;32;38633;-81
2023/08/04 16:19:20;;;;;;;6.47;3.58;;;;;;;25.71;54.78;99230.72;7764259;32;37981;-81
2023/08/04 16:23:37;;;;;;;7.80;3.33;;;;;;;25.61;55.31;99245.41;7765025;32;38106;-82
2023/08/04 16:27:54;;;;;;;8.77;2.12;;;;;;;25.23;55.79;99237.09;7764423;32;40174;-81
2023/08/04 16:32:10;;;;;;;5.32;2.00;;;;;;;25.71;54.55;99218.78;7764973;32;37902;-81
2023/08/04 16:36:26;;;;;;;6.60;2.40;;;;;;;25.96;53.35;99197.44;7764207;32;37704;-81
2023/08/04 16:40:44;;;;;;;7.80;3.35;;;;;;;26.23;53.15;99197.97;7764634;32;40078;-82
2023/08/04 16:45:00;;;;;;;9.73;4.93;;;;;;;26.35;53.40;99190.41;7764623;32;39929;-82
2023/08/04 16:49:16;;;;;;;3.95;1.85;;;;;;;26.58;52.07;99179.72;7764530;32;37813;-81
2023/08/04 16:53:33;;;;;;;3.53;1.62;;;;;;;26.86;50.45;99169.84;7764437;32;37647;-81
2023/08/04 16:57:50;;;;;;;6.00;1.60;;;;;;;26.90;49.30;99167.81;7764044;32;39973;-82
2023/08/04 17:02:06;;;;;;;2.10;1.60;;;;;;;27.35;48.78;99154.31;7764514;32;39855;-81
2023/08/04 17:06:24;;;;;;;10.95;2.12;;;;;;;27.55;47.84;99142.69;7764521;32;37830;-81
2023/08/04 17:10:41;;;;;;;2.15;1.60;;;;;;;27.42;47.76;99142.28;7762938;32;36938;-81
2023/08/04 17:14:57;;;;;;;2.12;1.40;;;;;;;27.56;47.84;99146.25;7764297;32;39781;-81
2023/08/04 17:19:14;;;;;;;1.98;1.60;;;;;;;27.31;49.69;99136.69;7763729;32;39832;-82
2023/08/04 17:23:31;;;;;;;7.75;1.77;;;;;;;27.32;48.45;99137.50;7764137;32;38082;-82
2023/08/04 17:27:47;;;;;;;3.30;1.48;;;;;;;27.19;48.97;99125.91;7745385;32;37696;-83
2023/08/04 17:32:04;;;;;;;3.17;1.60;;;;;;;27.10;49.33;99122.72;7776028;32;38948;-85
2023/08/04 17:36:20;;;;;;;4.07;2.00;;;;;;;26.88;50.88;99114.31;7736971;32;39882;-82
2023/08/04 17:40:37;;;;;;;5.00;1.77;;;;;;;26.47;52.93;99117.41;7736541;32;38497;-83
2023/08/04 17:44:53;;;;;;;9.77;4.55;;;;;;;26.38;51.04;99126.16;7761770;32;37840;-83
2023/08/04 17:49:09;;;;;;;65.68;33.17;;;;;;;26.26;52.54;99125.75;7762543;32;39814;-83
2023/08/04 17:53:26;;;;;;;43.08;19.37;;;;;;;26.01;52.51;99143.22;7763660;32;40704;-85
2023/08/04 17:57:42;;;;;;;41.00;19.40;;;;;;;25.78;54.03;99152.63;7760726;32;38332;-86
2023/08/04 18:01:58;;;;;;;33.47;19.20;;;;;;;25.42;55.46;99149.63;7741052;32;38213;-80
2023/08/04 18:06:16;;;;;;;33.60;17.25;;;;;;;25.30;55.98;99158.28;7782680;32;38887;-85
2023/08/04 18:10:39;;;;;;;28.58;14.50;;;;;;;25.25;55.90;99161.38;7769136;32;40784;-83
2023/08/04 18:14:56;;;;;;;23.25;10.98;;;;;;;25.12;55.98;99150.53;7763421;32;38069;-83
2023/08/04 18:19:12;;;;;;;17.52;9.15;;;;;;;25.16;55.84;99158.94;7762982;32;37371;-82
2023/08/04 18:23:28;;;;;;;15.93;7.80;;;;;;;25.15;56.02;99176.88;7788657;32;39274;-83
2023/08/04 18:27:44;;;;;;;15.32;7.03;;;;;;;24.85;57.52;99177.78;7790283;32;39950;-86
2023/08/04 18:32:02;;;;;;;13.95;6.20;;;;;;;24.87;56.82;99182.97;7786345;32;37815;-84
2023/08/04 18:36:23;;;;;;;6.80;3.65;;;;;;;24.59;57.82;99189.84;7733090;32;36843;-84
2023/08/04 18:40:40;;;;;;;12.35;3.75;;;;;;;24.70;56.92;99215.06;7753448;32;40119;-80
2023/08/04 18:44:57;;;;;;;11.35;4.43;;;;;;;24.48;57.53;99233.47;7760233;32;39708;-81
2023/08/04 18:49:13;;;;;;;11.57;3.67;;;;;;;24.45;57.85;99234.22;7760639;32;37613;-81
2023/08/04 18:53:29;;;;;;;5.15;2.45;;;;;;;24.31;58.63;99254.34;7754442;32;37105;-81
2023/08/04 18:57:46;;;;;;;6.82;2.33;;;;;;;24.23;58.49;99259.00;7765283;32;39286;-81
2023/08/04 19:02:02;;;;;;;13.98;2.20;;;;;;;24.16;58.98;99253.34;7765809;32;41011;-80
2023/08/04 19:06:19;;;;;;;6.03;2.15;;;;;;;24.02;58.99;99273.44;7765158;32;37920;-82
2023/08/04 19:10:38;;;;;;;6.00;1.95;;;;;;;23.71;59.83;99261.41;7763654;32;37052;-81
2023/08/04 19:14:57;;;;;;;10.85;1.73;;;;;;;23.25;61.18;99245.56;7764483;32;39090;-81
2023/08/04 19:19:13;;;;;;;4.18;2.00;;;;;;;23.22;61.18;99251.84;7765169;32;39957;-81
2023/08/04 19:23:30;;;;;;;8.13;1.80;;;;;;;22.84;62.21;99261.03;7765477;32;37990;-81
2023/08/04 19:27:47;;;;;;;5.55;1.65;;;;;;;22.97;61.76;99250.56;7764891;32;37534;-81
2023/08/04 19:32:04;;;;;;;6.05;1.80;;;;;;;22.67;63.10;99253.97;7763779;32;39351;-81
2023/08/04 19:36:20;;;;;;;4.45;1.90;;;;;;;22.88;62.40;99242.47;7764933;32;40737;-82
2023/08/04 19:40:37;;;;;;;9.13;2.03;;;;;;;23.05;62.06;99216.16;7764673;32;38697;-81
2023/08/04 19:44:55;;;;;;;3.87;1.70;;;;;;;22.91;63.10;99210.34;7765311;32;36991;-81
2023/08/04 19:49:12;;;;;;;4.70;2.00;;;;;;;22.80;62.49;99197.06;7764478;32;39303;-81
2023/08/04 19:53:29;;;;;;;3.75;2.10;;;;;;;22.94;62.19;99195.69;7748321;32;40815;-81
2023/08/04 19:57:45;;;;;;;3.80;1.60;;;;;;;22.91;62.66;99188.94;7769405;32;38505;-80
2023/08/04 20:02:02;;;;;;;5.12;1.90;;;;;;;23.17;61.49;99179.06;7781464;32;36764;-81
2023/08/04 20:06:19;;;;;;;8.15;2.30;;;;;;;23.09;61.72;99175.34;7755030;32;40517;-81